National Weather Service United States Department of Commerce

This is an experimental project that is derived straight from the NWS Billings aviation grids. 
There is no human interaction or quality control with this forecast and amendments are not issued.

 

TAF
K3U4 220510Z 2206/2306 VRB03KT P6SM FEW250
     FM221400 VRB05KT P6SM FEW250
     FM221500 14007KT P6SM FEW250
     FM222200 11009KT P6SM SCT250
     FM222300 09009KT P6SM SCT250
     FM230400 VRB05KT P6SM BKN250
      AMD NOT SKED. UNFL=

TAF
KBHK 220510Z 2206/2306 VRB04KT P6SM FEW250
     FM221600 16007KT P6SM SKC
      AMD NOT SKED. UNFL=

TAF
K6S0 220510Z 2206/2306 10008KT P6SM SCT250
     FM220900 03008KT P6SM SCT250
     FM221700 07011KT P6SM BKN060
     FM222100 10012KT P6SM VCSH SCT060
     FM230100 05010KT P6SM BKN070
     FM230300 33008KT P6SM SCT070
      AMD NOT SKED. UNFL=

TAF
K6S1 220510Z 2206/2306 VRB05KT P6SM FEW250
     FM221600 01007KT P6SM SCT110
     FM222000 02009KT P6SM SCT070
     FM222100 02009KT P6SM VCSH BKN060
     FM222300 33010KT P6SM VCSH BKN090
     FM230500 32007KT P6SM SCT250
      AMD NOT SKED. UNFL=

TAF
K00F 220510Z 2206/2306 VRB03KT P6SM FEW250
     FM221500 14007KT P6SM FEW250
     FM222000 13011KT P6SM FEW250
     FM222200 11012KT P6SM SCT250
     FM230000 09011KT P6SM BKN250
     FM230300 12007KT P6SM BKN250
      AMD NOT SKED. UNFL=

TAF
KM46 220510Z 2206/2306 VRB03KT P6SM FEW250
     FM221500 14007KT P6SM SCT250
     FM221900 12010KT P6SM FEW250
     FM222300 10010KT P6SM SCT110
     FM230200 07007KT P6SM BKN250
     FM230500 VRB03KT P6SM SCT250
      AMD NOT SKED. UNFL=

TAF
K6S3 220510Z 2206/2306 09008KT P6SM SCT250
     FM220900 VRB03KT P6SM FEW250
     FM221800 11008KT P6SM SCT090
     FM222300 20008KT P6SM VCSH BKN090
     FM230000 23008KT P6SM SCT070
     FM230200 27006KT P6SM BKN100
      AMD NOT SKED. UNFL=

TAF
K97M 220510Z 2206/2306 VRB05KT P6SM FEW250
     FM221600 15007KT P6SM FEW250
     FM222100 15010KT P6SM FEW250
     FM222300 13011KT P6SM FEW250
     FM230400 12008KT P6SM BKN250
     FM230500 12009KT P6SM SCT100
      AMD NOT SKED. UNFL=

TAF
K1S3 220510Z 2206/2306 VRB04KT P6SM FEW250
     FM221500 13007KT P6SM FEW250
      AMD NOT SKED. UNFL=

TAF
K5U7 220510Z 2206/2306 10007KT P6SM SCT250
     FM221600 09007KT P6SM FEW250
     FM222300 11010KT P6SM BKN100
     FM230100 10008KT P6SM SCT100
      AMD NOT SKED. UNFL=

TAF
K29S 220510Z 2206/2306 VRB05KT P6SM FEW250
     FM221900 31007KT P6SM -SHRASN VCTS BKN060CB
     FM222100 32009KT P6SM -SHRA VCTS BKN060CB
     FM222200 36009KT P6SM -SHRA VCTS BKN060CB
     FM222300 06008KT P6SM -SHRA VCTS BKN070CB
     FM230500 34006KT P6SM FEW250
      AMD NOT SKED. UNFL=

TAF
K00U 220510Z 2206/2306 VRB04KT P6SM SCT250
     FM221700 12007KT P6SM SCT250
     FM230000 10008KT P6SM BKN100
     FM230100 09007KT P6SM SCT100
     FM230200 06006KT P6SM BKN110
     FM230500 VRB03KT P6SM SCT250
      AMD NOT SKED. UNFL=

TAF
KHWQ 220510Z 2206/2306 08007KT P6SM SCT250
     FM222200 07010KT P6SM VCSH SCT090
     FM222300 36010KT P6SM VCSH SCT090
     FM230000 32010KT P6SM SCT100
     FM230100 32009KT P6SM BKN090
     FM230200 33008KT P6SM SCT100
      AMD NOT SKED. UNFL=

TAF
K6U7 220510Z 2206/2306 VRB04KT P6SM FEW250
     FM221600 11007KT P6SM SCT250
      AMD NOT SKED. UNFL=

TAF
K6S8 220510Z 2206/2306 07008KT P6SM SCT250
     FM220900 04008KT P6SM FEW250
     FM221700 08008KT P6SM SCT250
     FM222200 06008KT P6SM BKN100
     FM230100 11008KT P6SM BKN090
     FM230300 24007KT P6SM SCT120
      AMD NOT SKED. UNFL=

TAF
K80S 220510Z 2206/2306 VRB05KT P6SM SCT250
     FM230300 36007KT P6SM SCT250
      AMD NOT SKED. UNFL=

TAF
KRED 220510Z 2206/2306 VRB05KT P6SM SCT100
     FM221700 08008KT P6SM BKN060
     FM222200 01009KT P6SM VCSH BKN060
     FM222300 32010KT P6SM VCSH BKN060
     FM230000 29010KT P6SM BKN070
     FM230400 28008KT P6SM SCT060
      AMD NOT SKED. UNFL=

TAF
KRPX 220510Z 2206/2306 VRB03KT P6SM SCT250
     FM221400 VRB04KT P6SM BKN250
     FM221700 12007KT P6SM SCT250
      AMD NOT SKED. UNFL=

TAF
K8U0 220510Z 2206/2306 VRB05KT P6SM BKN250
     FM221100 VRB03KT P6SM SCT250
     FM221500 VRB05KT P6SM SCT250
     FM221700 10007KT P6SM SCT250
     FM230100 06006KT P6SM BKN090
     FM230300 35006KT P6SM SCT250
      AMD NOT SKED. UNFL=

TAF
K9U1 220510Z 2206/2306 21007KT P6SM FEW250
     FM221400 VRB04KT P6SM BKN060
     FM221500 VRB04KT P6SM SCT060
     FM221900 21006KT P6SM VCSH SCT060
     FM222000 33007KT P6SM VCSH BKN060
     FM230300 16006KT P6SM SCT070
      AMD NOT SKED. UNFL=